createdAt,value
2024-01-29T00:01:36.378Z,13.30
2024-01-29T00:04:10.013Z,13.20
2024-01-29T00:06:45.319Z,13.50
2024-01-29T00:09:21.335Z,13.20
2024-01-29T00:11:55.472Z,13.20
2024-01-29T00:14:29.356Z,13.20
2024-01-29T00:17:04.015Z,13.20
2024-01-29T00:19:37.845Z,13.30
2024-01-29T00:22:13.254Z,13.20
2024-01-29T00:24:48.299Z,13.10
2024-01-29T00:27:22.140Z,13.10
2024-01-29T00:29:55.680Z,13.10
2024-01-29T00:32:29.179Z,13.10
2024-01-29T00:35:07.721Z,13.10
2024-01-29T00:37:42.734Z,13.00
2024-01-29T00:40:16.839Z,13.00
2024-01-29T00:42:50.442Z,13.00
2024-01-29T00:45:24.357Z,13.00
2024-01-29T00:47:58.411Z,13.00
2024-01-29T00:50:32.373Z,13.00
2024-01-29T00:53:08.299Z,12.90
2024-01-29T00:55:45.388Z,12.90
2024-01-29T00:58:19.684Z,12.90
2024-01-29T01:00:53.535Z,12.80
2024-01-29T01:03:27.518Z,12.80
2024-01-29T01:06:01.624Z,12.80
2024-01-29T01:08:37.286Z,12.70
2024-01-29T01:11:11.092Z,12.70
2024-01-29T01:13:47.291Z,12.60
2024-01-29T01:16:20.678Z,12.60
2024-01-29T01:18:55.643Z,12.60
2024-01-29T01:21:29.574Z,12.60
2024-01-29T01:24:05.034Z,12.50
2024-01-29T01:26:40.069Z,12.50
2024-01-29T01:29:15.072Z,12.60
2024-01-29T01:31:49.311Z,12.40
2024-01-29T01:34:23.171Z,12.40
2024-01-29T01:36:57.017Z,12.40
2024-01-29T01:39:32.464Z,12.40
2024-01-29T01:42:07.224Z,12.40
2024-01-29T01:44:40.922Z,12.40
2024-01-29T01:47:15.261Z,12.40
2024-01-29T01:49:50.369Z,12.40
2024-01-29T01:52:24.201Z,12.40
2024-01-29T01:55:00.332Z,12.40
2024-01-29T01:57:34.713Z,12.30
2024-01-29T02:00:10.429Z,12.30
2024-01-29T02:02:44.730Z,12.30
2024-01-29T02:05:18.571Z,12.40
2024-01-29T02:07:52.896Z,12.40
2024-01-29T02:10:28.503Z,12.30
2024-01-29T02:13:02.279Z,12.60
2024-01-29T02:15:36.962Z,12.30
2024-01-29T02:18:11.327Z,12.30
2024-01-29T02:20:45.181Z,12.30
2024-01-29T02:23:20.115Z,12.30
2024-01-29T02:25:53.620Z,12.10
2024-01-29T02:28:29.272Z,12.30
2024-01-29T02:31:02.896Z,12.20
2024-01-29T02:33:37.402Z,12.20
2024-01-29T02:36:11.251Z,12.20
2024-01-29T02:38:50.442Z,12.30
2024-01-29T02:41:24.288Z,12.20
2024-01-29T02:43:58.484Z,12.30
2024-01-29T02:46:31.961Z,12.20
2024-01-29T02:49:05.819Z,12.20
2024-01-29T02:51:39.533Z,12.20
2024-01-29T02:54:14.797Z,12.20
2024-01-29T02:56:48.422Z,12.10
2024-01-29T02:59:21.976Z,12.10
2024-01-29T03:01:56.733Z,12.10
2024-01-29T03:04:30.593Z,12.20
2024-01-29T03:07:04.078Z,12.10
2024-01-29T03:09:39.594Z,12.10
2024-01-29T03:12:13.877Z,12.10
2024-01-29T03:14:47.679Z,12.00
2024-01-29T03:17:21.394Z,12.00
2024-01-29T03:19:55.203Z,12.00
2024-01-29T03:22:29.203Z,12.00
2024-01-29T03:25:04.569Z,12.00
2024-01-29T03:27:38.475Z,12.10
2024-01-29T03:30:13.892Z,11.90
2024-01-29T03:32:49.816Z,11.90
2024-01-29T03:35:23.653Z,11.90
2024-01-29T03:37:59.268Z,11.90
2024-01-29T03:40:34.359Z,11.90
2024-01-29T03:43:08.174Z,11.90
2024-01-29T03:45:42.127Z,12.00
2024-01-29T03:48:15.838Z,11.90
2024-01-29T03:50:49.669Z,11.80
2024-01-29T03:53:24.426Z,11.80
2024-01-29T03:55:59.956Z,11.80
2024-01-29T03:58:33.799Z,11.80
2024-01-29T04:01:07.551Z,11.80
2024-01-29T04:03:42.010Z,11.80
2024-01-29T04:06:15.823Z,11.80
2024-01-29T04:08:49.582Z,11.80
2024-01-29T04:11:25.728Z,12.00
2024-01-29T04:13:59.475Z,11.70
2024-01-29T04:16:33.368Z,11.70
2024-01-29T04:19:07.227Z,11.70
2024-01-29T04:21:44.762Z,11.70
2024-01-29T04:24:18.423Z,11.70
2024-01-29T04:26:53.693Z,11.70
2024-01-29T04:29:27.118Z,11.70
2024-01-29T04:32:00.960Z,11.60
2024-01-29T04:34:35.347Z,11.60
2024-01-29T04:37:09.033Z,11.60
2024-01-29T04:39:43.127Z,11.60
2024-01-29T04:42:19.389Z,11.60
2024-01-29T04:44:53.156Z,11.50
2024-01-29T04:47:27.435Z,11.50
2024-01-29T04:50:01.134Z,11.50
2024-01-29T04:52:34.876Z,11.50
2024-01-29T04:55:09.118Z,11.70
2024-01-29T04:57:44.414Z,11.50
2024-01-29T05:00:18.900Z,11.40
2024-01-29T05:02:53.092Z,11.50
2024-01-29T05:05:26.644Z,11.40
2024-01-29T05:08:00.464Z,11.40
2024-01-29T05:10:35.019Z,11.40
2024-01-29T05:13:11.154Z,11.50
2024-01-29T05:15:45.264Z,11.40
2024-01-29T05:18:19.147Z,11.40
2024-01-29T05:20:52.592Z,11.40
2024-01-29T05:23:26.518Z,11.30
2024-01-29T05:25:59.892Z,11.30
2024-01-29T05:28:35.288Z,11.30
2024-01-29T05:31:09.182Z,11.20
2024-01-29T05:33:42.765Z,11.20
2024-01-29T05:36:17.160Z,11.20
2024-01-29T05:38:50.706Z,11.20
2024-01-29T05:41:24.398Z,11.20
2024-01-29T05:43:59.662Z,11.10
2024-01-29T05:46:33.287Z,11.20
2024-01-29T05:49:07.172Z,11.10
2024-01-29T05:51:41.195Z,11.10
2024-01-29T05:54:14.747Z,11.10
2024-01-29T05:56:51.524Z,11.10
2024-01-29T05:59:27.400Z,11.00
2024-01-29T06:02:01.475Z,11.00
2024-01-29T06:04:35.413Z,11.00
2024-01-29T06:07:10.886Z,11.00
2024-01-29T06:09:44.625Z,11.00
2024-01-29T06:12:18.420Z,11.00
2024-01-29T06:14:53.806Z,11.00
2024-01-29T06:17:27.636Z,11.00
2024-01-29T06:20:14.736Z,10.90
2024-01-29T06:22:51.489Z,10.90
2024-01-29T06:25:25.449Z,11.20
2024-01-29T06:27:59.917Z,10.90
2024-01-29T06:30:35.490Z,10.90
2024-01-29T06:33:10.149Z,10.80
2024-01-29T06:35:44.111Z,10.80
2024-01-29T06:38:17.668Z,10.80
2024-01-29T06:40:51.398Z,10.80
2024-01-29T06:43:25.026Z,10.70
2024-01-29T06:46:00.392Z,10.70
2024-01-29T06:48:38.517Z,10.70
2024-01-29T06:51:13.377Z,10.70
2024-01-29T06:53:49.593Z,10.60
2024-01-29T06:56:23.256Z,10.60
2024-01-29T06:58:56.859Z,10.60
2024-01-29T07:01:34.073Z,10.50
2024-01-29T07:04:08.115Z,10.50
2024-01-29T07:06:43.277Z,10.50
2024-01-29T07:09:18.408Z,10.50
2024-01-29T07:11:51.782Z,10.50
2024-01-29T07:14:26.386Z,10.50
2024-01-29T07:17:01.275Z,10.70
2024-01-29T07:19:35.633Z,10.50
2024-01-29T07:22:11.027Z,10.50
2024-01-29T07:24:45.112Z,10.40
2024-01-29T07:27:19.040Z,10.40
2024-01-29T07:29:55.390Z,10.40
2024-01-29T07:32:33.580Z,10.40
2024-01-29T07:35:09.693Z,10.40
2024-01-29T07:37:43.584Z,10.30
2024-01-29T07:40:17.620Z,10.40
2024-01-29T07:42:52.348Z,10.30
2024-01-29T07:45:28.062Z,10.30
2024-01-29T07:48:06.122Z,10.30
2024-01-29T07:50:40.116Z,10.30
2024-01-29T07:53:13.720Z,10.40
2024-01-29T07:55:48.084Z,10.40
2024-01-29T07:58:23.266Z,10.20
2024-01-29T08:00:59.956Z,10.20
2024-01-29T08:03:35.324Z,10.20
2024-01-29T08:06:09.361Z,10.20
2024-01-29T08:08:43.364Z,10.20
2024-01-29T08:11:16.795Z,10.20
2024-01-29T08:13:51.839Z,10.40
2024-01-29T08:16:25.443Z,10.10
2024-01-29T08:19:02.322Z,10.20
2024-01-29T08:21:36.663Z,10.20
2024-01-29T08:24:10.543Z,10.30
2024-01-29T08:26:45.843Z,10.20
2024-01-29T08:29:21.648Z,10.20
2024-01-29T08:31:55.397Z,10.30
2024-01-29T08:34:32.999Z,10.30
2024-01-29T08:37:07.418Z,10.40
2024-01-29T08:39:42.638Z,10.20
2024-01-29T08:42:17.409Z,10.30
2024-01-29T08:44:51.230Z,10.30
2024-01-29T08:47:26.412Z,10.30
2024-01-29T08:50:01.913Z,10.40
2024-01-29T08:52:37.457Z,10.60
2024-01-29T08:55:13.078Z,10.50
2024-01-29T08:57:47.474Z,10.60
2024-01-29T09:00:22.231Z,10.70
2024-01-29T09:02:57.626Z,10.70
2024-01-29T09:05:33.218Z,10.90
2024-01-29T09:08:15.932Z,10.90
2024-01-29T09:10:52.670Z,11.00
2024-01-29T09:13:27.155Z,11.10
2024-01-29T09:16:01.045Z,11.20
2024-01-29T09:18:35.006Z,11.20
2024-01-29T09:21:11.431Z,11.30
2024-01-29T09:23:45.834Z,11.50
2024-01-29T09:26:20.477Z,11.60
2024-01-29T09:28:54.805Z,11.40
2024-01-29T09:31:28.529Z,11.50
2024-01-29T09:34:04.259Z,11.80
2024-01-29T09:36:40.921Z,11.60
2024-01-29T09:39:14.787Z,11.80
2024-01-29T09:41:48.967Z,11.70
2024-01-29T09:44:26.396Z,11.80
2024-01-29T09:47:04.574Z,11.80
2024-01-29T09:49:40.457Z,11.90
2024-01-29T09:52:16.662Z,11.90
2024-01-29T09:54:54.187Z,12.00
2024-01-29T09:57:27.954Z,12.00
2024-01-29T10:00:02.135Z,12.10
2024-01-29T10:02:37.873Z,12.10
2024-01-29T10:05:14.947Z,12.50
2024-01-29T10:07:55.228Z,12.30
2024-01-29T10:10:29.803Z,12.50
2024-01-29T10:13:08.739Z,12.40
2024-01-29T10:15:44.897Z,12.50
2024-01-29T10:18:23.585Z,12.20
2024-01-29T10:21:06.128Z,12.70
2024-01-29T10:23:41.758Z,12.80
2024-01-29T10:26:18.640Z,12.90
2024-01-29T10:29:05.621Z,13.10
2024-01-29T10:31:41.997Z,13.00
2024-01-29T10:34:16.652Z,13.10
2024-01-29T10:36:54.074Z,13.20
2024-01-29T10:39:39.566Z,13.30
2024-01-29T10:42:22.365Z,13.30
2024-01-29T10:44:58.781Z,13.40
2024-01-29T10:47:36.064Z,13.50
2024-01-29T10:50:12.410Z,13.60
2024-01-29T10:52:49.832Z,13.60
2024-01-29T10:55:25.465Z,13.70
2024-01-29T10:58:03.060Z,13.70
2024-01-29T11:00:38.530Z,13.80
2024-01-29T11:03:15.559Z,13.90
2024-01-29T11:06:01.945Z,14.30
2024-01-29T11:08:40.925Z,14.10
2024-01-29T11:11:16.602Z,14.20
2024-01-29T11:13:50.448Z,14.20
2024-01-29T11:16:24.548Z,14.30
2024-01-29T11:18:59.072Z,14.40
2024-01-29T11:21:34.303Z,14.50
2024-01-29T11:24:14.027Z,14.50
2024-01-29T11:26:53.142Z,14.60
2024-01-29T11:29:28.385Z,14.70
2024-01-29T11:32:03.403Z,14.80
2024-01-29T11:34:37.905Z,14.90
2024-01-29T11:37:12.617Z,15.00
2024-01-29T11:39:47.089Z,15.10
2024-01-29T11:42:23.942Z,15.20
2024-01-29T11:44:59.795Z,15.20
2024-01-29T11:47:33.463Z,15.30
2024-01-29T11:50:08.822Z,15.40
2024-01-29T11:52:43.039Z,15.40
2024-01-29T11:55:23.192Z,15.40
2024-01-29T11:57:58.400Z,15.50
2024-01-29T12:00:32.437Z,15.60
2024-01-29T12:03:08.995Z,15.70
2024-01-29T12:05:43.341Z,15.70
2024-01-29T12:08:21.339Z,15.70
2024-01-29T12:11:03.220Z,15.80
2024-01-29T12:13:39.331Z,15.80
2024-01-29T12:16:14.338Z,15.80
2024-01-29T12:18:51.283Z,15.80
2024-01-29T12:21:26.133Z,15.90
2024-01-29T12:24:00.693Z,15.90
2024-01-29T12:26:35.099Z,16.00
2024-01-29T12:29:12.664Z,16.00
2024-01-29T12:31:46.577Z,16.10
2024-01-29T12:34:24.874Z,16.20
2024-01-29T12:36:59.215Z,16.20
2024-01-29T12:39:33.156Z,16.30
2024-01-29T12:42:15.766Z,16.30
2024-01-29T12:44:52.943Z,16.40
2024-01-29T12:47:26.936Z,16.50
2024-01-29T12:50:00.951Z,16.60
2024-01-29T12:52:35.545Z,16.60
2024-01-29T12:55:10.218Z,16.70
2024-01-29T12:57:43.767Z,16.70
2024-01-29T13:00:22.942Z,16.70
2024-01-29T13:02:57.174Z,16.80
2024-01-29T13:05:33.663Z,16.80
2024-01-29T13:08:08.213Z,16.80
2024-01-29T13:10:42.404Z,16.80
2024-01-29T13:13:16.410Z,16.90
2024-01-29T13:15:54.263Z,16.90
2024-01-29T13:18:28.551Z,16.90
2024-01-29T13:21:02.375Z,16.90
2024-01-29T13:23:36.235Z,16.90
2024-01-29T13:26:10.090Z,16.90
2024-01-29T13:28:44.183Z,16.90
2024-01-29T13:31:19.224Z,17.00
2024-01-29T13:33:53.164Z,16.90
2024-01-29T13:36:26.997Z,16.90
2024-01-29T13:39:01.747Z,16.90
2024-01-29T13:41:35.392Z,16.90
2024-01-29T13:44:09.580Z,16.90
2024-01-29T13:46:45.027Z,16.90
2024-01-29T13:49:19.352Z,16.90
2024-01-29T13:51:53.583Z,16.90
2024-01-29T13:54:27.511Z,16.90
2024-01-29T13:57:01.116Z,16.90
2024-01-29T13:59:36.950Z,16.90
2024-01-29T14:02:13.314Z,16.80
2024-01-29T14:04:47.280Z,16.80
2024-01-29T14:07:21.279Z,16.80
2024-01-29T14:09:55.197Z,16.80
2024-01-29T14:12:30.108Z,16.70
2024-01-29T14:15:05.406Z,16.70
2024-01-29T14:17:40.730Z,16.70
2024-01-29T14:20:14.886Z,16.70
2024-01-29T14:22:52.694Z,16.70
2024-01-29T14:25:27.162Z,16.60
2024-01-29T14:28:00.804Z,16.60
2024-01-29T14:30:34.665Z,16.60
2024-01-29T14:33:09.981Z,16.60
2024-01-29T14:35:43.754Z,16.60
2024-01-29T14:38:17.615Z,16.50
2024-01-29T14:40:53.698Z,16.50
2024-01-29T14:43:27.431Z,16.50
2024-01-29T14:46:01.595Z,16.50
2024-01-29T14:48:37.002Z,16.50
2024-01-29T14:51:10.978Z,16.50
2024-01-29T14:53:45.904Z,16.40
2024-01-29T14:56:22.285Z,16.40
2024-01-29T14:58:55.751Z,16.40
2024-01-29T15:01:30.012Z,16.40
2024-01-29T15:04:10.513Z,16.40
2024-01-29T15:06:44.687Z,16.30
2024-01-29T15:09:19.041Z,16.30
2024-01-29T15:11:53.267Z,16.30
2024-01-29T15:14:27.975Z,16.30
2024-01-29T15:17:04.715Z,16.30
2024-01-29T15:19:39.711Z,16.30
2024-01-29T15:22:15.130Z,16.30
2024-01-29T15:24:49.109Z,16.20
2024-01-29T15:27:24.358Z,16.20
2024-01-29T15:30:00.064Z,16.20
2024-01-29T15:32:33.915Z,16.20
2024-01-29T15:35:11.204Z,16.10
2024-01-29T15:37:44.882Z,16.10
2024-01-29T15:40:20.217Z,16.10
2024-01-29T15:43:04.796Z,16.00
2024-01-29T15:45:39.692Z,16.00
2024-01-29T15:48:15.919Z,16.00
2024-01-29T15:50:53.975Z,15.90
2024-01-29T15:53:29.240Z,15.90
2024-01-29T15:56:04.775Z,15.80
2024-01-29T15:58:38.453Z,15.80
2024-01-29T16:01:12.419Z,15.70
2024-01-29T16:03:48.530Z,15.70
2024-01-29T16:06:23.738Z,15.70
2024-01-29T16:08:57.403Z,15.60
2024-01-29T16:11:31.382Z,15.60
2024-01-29T16:14:04.973Z,15.50
2024-01-29T16:16:40.925Z,15.50
2024-01-29T16:19:15.564Z,15.40
2024-01-29T16:21:51.569Z,15.40
2024-01-29T16:24:26.109Z,15.30
2024-01-29T16:27:00.069Z,15.30
2024-01-29T16:29:33.961Z,15.20
2024-01-29T16:32:08.746Z,15.20
2024-01-29T16:34:43.251Z,15.10
2024-01-29T16:37:20.432Z,15.10
2024-01-29T16:39:54.217Z,15.00
2024-01-29T16:42:28.216Z,15.00
2024-01-29T16:45:03.176Z,14.90
2024-01-29T16:47:39.673Z,14.90
2024-01-29T16:50:13.976Z,14.80
2024-01-29T16:52:49.608Z,14.80
2024-01-29T16:55:23.218Z,14.80
2024-01-29T16:57:57.683Z,14.70
2024-01-29T17:00:32.795Z,14.70
2024-01-29T17:03:07.524Z,14.70
2024-01-29T17:05:41.340Z,14.60
2024-01-29T17:08:19.404Z,14.60
2024-01-29T17:10:53.110Z,14.80
2024-01-29T17:13:28.215Z,14.50
2024-01-29T17:16:02.491Z,14.50
2024-01-29T17:18:36.550Z,14.50
2024-01-29T17:21:12.827Z,14.50
2024-01-29T17:23:47.927Z,14.50
2024-01-29T17:26:23.246Z,14.40
2024-01-29T17:28:57.062Z,14.40
2024-01-29T17:31:31.803Z,14.40
2024-01-29T17:34:05.695Z,14.40
2024-01-29T17:36:39.321Z,14.30
2024-01-29T17:39:14.702Z,14.30
2024-01-29T17:41:48.376Z,14.30
2024-01-29T17:44:22.367Z,14.30
2024-01-29T17:46:56.407Z,14.20
2024-01-29T17:49:30.313Z,14.20
2024-01-29T17:52:04.824Z,14.20
2024-01-29T17:54:44.022Z,14.20
2024-01-29T17:57:17.921Z,14.20
2024-01-29T17:59:51.757Z,14.20
2024-01-29T18:02:25.249Z,14.10
2024-01-29T18:05:00.449Z,14.10
2024-01-29T18:07:34.641Z,14.10
2024-01-29T18:10:11.210Z,14.10
2024-01-29T18:12:44.663Z,14.10
2024-01-29T18:15:19.092Z,14.10
2024-01-29T18:17:53.640Z,14.10
2024-01-29T18:20:28.084Z,14.10
2024-01-29T18:23:04.085Z,14.10
2024-01-29T18:25:41.150Z,14.10
2024-01-29T18:28:16.023Z,14.00
2024-01-29T18:30:49.903Z,14.00
2024-01-29T18:33:23.936Z,14.00
2024-01-29T18:35:57.640Z,14.00
2024-01-29T18:38:32.171Z,14.00
2024-01-29T18:41:07.155Z,14.00
2024-01-29T18:43:40.685Z,14.00
2024-01-29T18:46:17.328Z,14.00
2024-01-29T18:48:52.313Z,13.90
2024-01-29T18:51:27.598Z,13.90
2024-01-29T18:54:05.247Z,13.90
2024-01-29T18:56:40.706Z,13.90
2024-01-29T18:59:14.130Z,14.10
2024-01-29T19:01:48.360Z,13.90
2024-01-29T19:04:23.548Z,13.90
2024-01-29T19:06:57.364Z,13.80
2024-01-29T19:09:31.311Z,13.80
2024-01-29T19:12:07.681Z,13.80
2024-01-29T19:14:41.523Z,13.80
2024-01-29T19:17:17.221Z,13.80
2024-01-29T19:19:51.003Z,13.70
2024-01-29T19:22:25.097Z,13.70
2024-01-29T19:25:01.368Z,13.70
2024-01-29T19:27:36.336Z,13.70
2024-01-29T19:30:16.451Z,13.70
2024-01-29T19:32:50.604Z,13.70
2024-01-29T19:35:24.397Z,13.70
2024-01-29T19:37:58.723Z,13.60
2024-01-29T19:40:32.723Z,13.70
2024-01-29T19:43:08.565Z,13.70
2024-01-29T19:45:42.346Z,13.60
2024-01-29T19:48:16.018Z,13.80
2024-01-29T19:50:50.513Z,13.60
2024-01-29T19:53:24.375Z,13.60
2024-01-29T19:55:58.217Z,13.60
2024-01-29T19:58:33.434Z,13.60
2024-01-29T20:01:08.479Z,13.60
2024-01-29T20:03:42.336Z,13.60
2024-01-29T20:06:15.814Z,13.60
2024-01-29T20:08:50.976Z,13.60
2024-01-29T20:11:24.612Z,13.60
2024-01-29T20:14:00.033Z,13.60
2024-01-29T20:16:38.681Z,13.60
2024-01-29T20:19:12.819Z,13.60
2024-01-29T20:21:47.057Z,13.60
2024-01-29T20:24:21.228Z,13.60
2024-01-29T20:26:54.996Z,13.60
2024-01-29T20:29:29.984Z,13.60
2024-01-29T20:32:04.999Z,13.60
2024-01-29T20:34:38.927Z,13.50
2024-01-29T20:37:14.289Z,13.50
2024-01-29T20:39:48.606Z,13.50
2024-01-29T20:42:23.847Z,13.50
2024-01-29T20:45:00.305Z,13.50
2024-01-29T20:47:34.366Z,13.50
2024-01-29T20:50:10.263Z,13.50
2024-01-29T20:53:08.584Z,13.50
2024-01-29T20:55:42.736Z,13.50
2024-01-29T20:58:16.575Z,13.50
2024-01-29T21:00:51.830Z,13.30
2024-01-29T21:03:25.322Z,13.50
2024-01-29T21:05:58.896Z,13.40
2024-01-29T21:08:32.688Z,13.70
2024-01-29T21:11:07.159Z,13.70
2024-01-29T21:13:41.537Z,13.40
2024-01-29T21:16:31.270Z,13.40
2024-01-29T21:19:05.438Z,13.40
2024-01-29T21:21:44.807Z,13.40
2024-01-29T21:24:18.896Z,13.40
2024-01-29T21:26:52.511Z,13.40
2024-01-29T21:29:26.206Z,13.40
2024-01-29T21:32:01.256Z,13.40
2024-01-29T21:34:35.076Z,13.30
2024-01-29T21:37:09.089Z,13.50
2024-01-29T21:39:42.727Z,13.50
2024-01-29T21:42:17.956Z,13.30
2024-01-29T21:44:51.946Z,13.30
2024-01-29T21:47:29.261Z,13.30
2024-01-29T21:50:06.790Z,13.30
2024-01-29T21:52:40.748Z,13.20
2024-01-29T21:55:14.453Z,12.80
2024-01-29T21:57:48.255Z,13.20
2024-01-29T22:00:22.492Z,13.20
2024-01-29T22:02:58.131Z,13.10
2024-01-29T22:05:32.368Z,13.10
2024-01-29T22:08:08.488Z,13.10
2024-01-29T22:10:42.337Z,13.10
2024-01-29T22:13:15.966Z,13.00
2024-01-29T22:15:49.513Z,13.00
2024-01-29T22:18:24.483Z,13.00
2024-01-29T22:20:57.841Z,13.00
2024-01-29T22:23:32.961Z,13.00
2024-01-29T22:26:07.055Z,12.90
2024-01-29T22:28:40.666Z,12.90
2024-01-29T22:31:14.551Z,12.90
2024-01-29T22:33:49.899Z,12.90
2024-01-29T22:36:23.691Z,12.90
2024-01-29T22:38:59.629Z,12.90
2024-01-29T22:41:33.618Z,12.90
2024-01-29T22:44:07.616Z,12.90
2024-01-29T22:46:44.002Z,12.90
2024-01-29T22:49:20.510Z,12.80
2024-01-29T22:51:54.179Z,12.80
2024-01-29T22:54:27.886Z,12.80
2024-01-29T22:57:01.239Z,12.80
2024-01-29T22:59:37.243Z,12.80
2024-01-29T23:02:11.970Z,12.80
2024-01-29T23:04:47.710Z,12.80
2024-01-29T23:07:21.447Z,12.80
2024-01-29T23:09:55.633Z,12.80
2024-01-29T23:12:29.501Z,12.70
2024-01-29T23:15:05.052Z,12.70
2024-01-29T23:17:41.027Z,12.70
2024-01-29T23:20:18.105Z,12.70
2024-01-29T23:22:53.332Z,12.70
2024-01-29T23:25:28.512Z,12.70
2024-01-29T23:28:02.505Z,12.70
2024-01-29T23:30:36.301Z,12.60
2024-01-29T23:33:10.557Z,12.70
2024-01-29T23:35:45.636Z,12.60
2024-01-29T23:38:19.320Z,12.60
2024-01-29T23:40:52.627Z,12.80
2024-01-29T23:43:26.859Z,12.60
2024-01-29T23:46:00.508Z,12.50
2024-01-29T23:48:34.519Z,12.60
2024-01-29T23:51:10.382Z,12.50
2024-01-29T23:53:45.264Z,12.80
2024-01-29T23:56:19.139Z,12.50
2024-01-29T23:58:53.068Z,12.60
